sensor_id;sensor_type;location;lat;lon;timestamp;P1;durP1;ratioP1;P2;durP2;ratioP2
69220;SDS011;56331;51.992;20.910;2022-12-07T00:01:39;16.57;;;10.28;;
69220;SDS011;56331;51.992;20.910;2022-12-07T00:04:09;16.65;;;9.63;;
69220;SDS011;56331;51.992;20.910;2022-12-07T00:06:40;16.12;;;9.68;;
69220;SDS011;56331;51.992;20.910;2022-12-07T00:09:15;17.73;;;10.58;;
69220;SDS011;56331;51.992;20.910;2022-12-07T00:11:43;14.13;;;9.83;;
69220;SDS011;56331;51.992;20.910;2022-12-07T00:14:11;14.85;;;9.73;;
69220;SDS011;56331;51.992;20.910;2022-12-07T00:16:39;18.00;;;9.65;;
69220;SDS011;56331;51.992;20.910;2022-12-07T00:19:06;13.78;;;9.10;;
69220;SDS011;56331;51.992;20.910;2022-12-07T00:21:33;13.48;;;8.98;;
69220;SDS011;56331;51.992;20.910;2022-12-07T00:24:01;16.65;;;9.98;;
69220;SDS011;56331;51.992;20.910;2022-12-07T00:26:30;17.52;;;9.55;;
69220;SDS011;56331;51.992;20.910;2022-12-07T00:29:03;14.45;;;9.18;;
69220;SDS011;56331;51.992;20.910;2022-12-07T00:31:29;15.53;;;9.58;;
69220;SDS011;56331;51.992;20.910;2022-12-07T00:33:59;15.28;;;9.20;;
69220;SDS011;56331;51.992;20.910;2022-12-07T00:36:25;14.90;;;9.65;;
69220;SDS011;56331;51.992;20.910;2022-12-07T00:38:52;15.18;;;9.58;;
69220;SDS011;56331;51.992;20.910;2022-12-07T00:41:21;14.07;;;8.83;;
69220;SDS011;56331;51.992;20.910;2022-12-07T00:43:49;15.17;;;8.93;;
69220;SDS011;56331;51.992;20.910;2022-12-07T00:46:17;14.83;;;9.30;;
69220;SDS011;56331;51.992;20.910;2022-12-07T00:48:46;12.93;;;9.18;;
69220;SDS011;56331;51.992;20.910;2022-12-07T00:51:14;15.35;;;8.88;;
69220;SDS011;56331;51.992;20.910;2022-12-07T00:53:42;14.75;;;9.05;;
69220;SDS011;56331;51.992;20.910;2022-12-07T00:56:23;12.82;;;8.05;;
69220;SDS011;56331;51.992;20.910;2022-12-07T00:58:55;13.48;;;8.48;;
69220;SDS011;56331;51.992;20.910;2022-12-07T01:01:24;12.70;;;8.05;;
69220;SDS011;56331;51.992;20.910;2022-12-07T01:03:53;12.63;;;8.50;;
69220;SDS011;56331;51.992;20.910;2022-12-07T01:06:20;12.95;;;8.85;;
69220;SDS011;56331;51.992;20.910;2022-12-07T01:08:48;15.00;;;8.25;;
69220;SDS011;56331;51.992;20.910;2022-12-07T01:11:16;13.25;;;7.72;;
69220;SDS011;56331;51.992;20.910;2022-12-07T01:13:45;12.20;;;7.50;;
69220;SDS011;56331;51.992;20.910;2022-12-07T01:16:12;12.58;;;8.33;;
69220;SDS011;56331;51.992;20.910;2022-12-07T01:18:41;10.82;;;7.83;;
69220;SDS011;56331;51.992;20.910;2022-12-07T01:21:12;9.15;;;7.00;;
69220;SDS011;56331;51.992;20.910;2022-12-07T01:23:41;11.20;;;7.53;;
69220;SDS011;56331;51.992;20.910;2022-12-07T01:29:50;10.88;;;6.87;;
69220;SDS011;56331;51.992;20.910;2022-12-07T01:32:18;12.78;;;7.60;;
69220;SDS011;56331;51.992;20.910;2022-12-07T01:34:44;12.80;;;7.53;;
69220;SDS011;56331;51.992;20.910;2022-12-07T01:37:12;12.73;;;7.28;;
69220;SDS011;56331;51.992;20.910;2022-12-07T01:39:39;10.48;;;7.33;;
69220;SDS011;56331;51.992;20.910;2022-12-07T01:42:10;10.75;;;6.83;;
69220;SDS011;56331;51.992;20.910;2022-12-07T01:47:41;10.58;;;6.78;;
69220;SDS011;56331;51.992;20.910;2022-12-07T01:50:11;13.30;;;7.40;;
69220;SDS011;56331;51.992;20.910;2022-12-07T01:52:38;10.80;;;7.10;;
69220;SDS011;56331;51.992;20.910;2022-12-07T01:55:07;10.03;;;6.05;;
69220;SDS011;56331;51.992;20.910;2022-12-07T01:57:37;10.20;;;6.95;;
69220;SDS011;56331;51.992;20.910;2022-12-07T02:02:34;9.68;;;6.30;;
69220;SDS011;56331;51.992;20.910;2022-12-07T02:05:03;10.80;;;6.40;;
69220;SDS011;56331;51.992;20.910;2022-12-07T02:07:31;9.58;;;6.28;;
69220;SDS011;56331;51.992;20.910;2022-12-07T02:10:22;9.03;;;5.83;;
69220;SDS011;56331;51.992;20.910;2022-12-07T02:12:39;9.60;;;6.40;;
69220;SDS011;56331;51.992;20.910;2022-12-07T02:15:06;9.45;;;5.70;;
69220;SDS011;56331;51.992;20.910;2022-12-07T02:20:28;9.03;;;6.00;;
69220;SDS011;56331;51.992;20.910;2022-12-07T02:28:27;9.08;;;5.87;;
69220;SDS011;56331;51.992;20.910;2022-12-07T02:30:57;9.53;;;6.00;;
69220;SDS011;56331;51.992;20.910;2022-12-07T02:33:31;10.63;;;5.70;;
69220;SDS011;56331;51.992;20.910;2022-12-07T02:44:03;8.05;;;5.58;;
69220;SDS011;56331;51.992;20.910;2022-12-07T02:46:33;8.55;;;5.28;;
69220;SDS011;56331;51.992;20.910;2022-12-07T02:49:02;8.33;;;5.50;;
69220;SDS011;56331;51.992;20.910;2022-12-07T02:51:30;8.33;;;5.67;;
69220;SDS011;56331;51.992;20.910;2022-12-07T02:53:58;8.93;;;5.67;;
69220;SDS011;56331;51.992;20.910;2022-12-07T03:04:45;6.45;;;4.60;;
69220;SDS011;56331;51.992;20.910;2022-12-07T03:18:16;6.55;;;4.53;;
69220;SDS011;56331;51.992;20.910;2022-12-07T03:23:12;7.83;;;4.50;;
69220;SDS011;56331;51.992;20.910;2022-12-07T03:25:44;5.72;;;4.25;;
69220;SDS011;56331;51.992;20.910;2022-12-07T03:28:16;7.20;;;4.60;;
69220;SDS011;56331;51.992;20.910;2022-12-07T03:30:47;5.85;;;4.12;;
69220;SDS011;56331;51.992;20.910;2022-12-07T03:33:22;5.70;;;4.15;;
69220;SDS011;56331;51.992;20.910;2022-12-07T03:35:53;6.30;;;4.42;;
69220;SDS011;56331;51.992;20.910;2022-12-07T03:38:23;5.50;;;4.20;;
69220;SDS011;56331;51.992;20.910;2022-12-07T03:41:05;6.47;;;4.60;;
69220;SDS011;56331;51.992;20.910;2022-12-07T03:43:34;6.60;;;4.40;;
69220;SDS011;56331;51.992;20.910;2022-12-07T03:48:59;5.72;;;4.10;;
69220;SDS011;56331;51.992;20.910;2022-12-07T03:56:58;5.40;;;3.90;;
69220;SDS011;56331;51.992;20.910;2022-12-07T03:59:26;4.25;;;3.22;;
69220;SDS011;56331;51.992;20.910;2022-12-07T04:01:56;5.42;;;3.72;;
69220;SDS011;56331;51.992;20.910;2022-12-07T04:04:25;4.62;;;3.25;;
69220;SDS011;56331;51.992;20.910;2022-12-07T04:06:52;5.20;;;3.72;;
69220;SDS011;56331;51.992;20.910;2022-12-07T04:09:18;5.17;;;3.67;;
69220;SDS011;56331;51.992;20.910;2022-12-07T04:11:45;5.50;;;3.67;;
69220;SDS011;56331;51.992;20.910;2022-12-07T04:14:12;4.97;;;3.45;;
69220;SDS011;56331;51.992;20.910;2022-12-07T04:16:52;5.03;;;3.62;;
69220;SDS011;56331;51.992;20.910;2022-12-07T04:19:25;4.62;;;3.42;;
69220;SDS011;56331;51.992;20.910;2022-12-07T04:21:57;5.62;;;3.80;;
69220;SDS011;56331;51.992;20.910;2022-12-07T04:24:26;6.72;;;3.70;;
69220;SDS011;56331;51.992;20.910;2022-12-07T04:26:53;4.35;;;3.25;;
69220;SDS011;56331;51.992;20.910;2022-12-07T04:29:21;5.35;;;3.37;;
69220;SDS011;56331;51.992;20.910;2022-12-07T04:31:48;5.17;;;3.70;;
69220;SDS011;56331;51.992;20.910;2022-12-07T04:34:15;4.47;;;3.25;;
69220;SDS011;56331;51.992;20.910;2022-12-07T04:36:42;6.00;;;3.85;;
69220;SDS011;56331;51.992;20.910;2022-12-07T04:39:20;4.00;;;3.00;;
69220;SDS011;56331;51.992;20.910;2022-12-07T04:41:49;4.70;;;3.12;;
69220;SDS011;56331;51.992;20.910;2022-12-07T04:44:16;4.65;;;3.20;;
69220;SDS011;56331;51.992;20.910;2022-12-07T04:46:42;4.50;;;3.22;;
69220;SDS011;56331;51.992;20.910;2022-12-07T04:49:10;3.85;;;3.17;;
69220;SDS011;56331;51.992;20.910;2022-12-07T04:51:38;5.10;;;3.45;;
69220;SDS011;56331;51.992;20.910;2022-12-07T04:54:04;5.28;;;3.10;;
69220;SDS011;56331;51.992;20.910;2022-12-07T04:56:31;6.55;;;3.70;;
69220;SDS011;56331;51.992;20.910;2022-12-07T04:58:58;4.12;;;3.10;;
69220;SDS011;56331;51.992;20.910;2022-12-07T05:01:25;4.22;;;3.00;;
69220;SDS011;56331;51.992;20.910;2022-12-07T05:03:51;4.35;;;2.95;;
69220;SDS011;56331;51.992;20.910;2022-12-07T05:06:18;4.20;;;3.30;;
69220;SDS011;56331;51.992;20.910;2022-12-07T05:08:44;4.58;;;3.30;;
69220;SDS011;56331;51.992;20.910;2022-12-07T05:11:12;4.55;;;3.02;;
69220;SDS011;56331;51.992;20.910;2022-12-07T05:13:57;5.00;;;3.10;;
69220;SDS011;56331;51.992;20.910;2022-12-07T05:16:23;4.53;;;3.37;;
69220;SDS011;56331;51.992;20.910;2022-12-07T05:18:50;5.05;;;3.22;;
69220;SDS011;56331;51.992;20.910;2022-12-07T05:21:16;4.67;;;3.40;;
69220;SDS011;56331;51.992;20.910;2022-12-07T05:23:43;6.08;;;3.55;;
69220;SDS011;56331;51.992;20.910;2022-12-07T05:26:10;5.53;;;3.50;;
69220;SDS011;56331;51.992;20.910;2022-12-07T05:28:37;5.42;;;3.60;;
69220;SDS011;56331;51.992;20.910;2022-12-07T05:31:04;4.17;;;2.98;;
69220;SDS011;56331;51.992;20.910;2022-12-07T05:33:31;5.28;;;3.50;;
69220;SDS011;56331;51.992;20.910;2022-12-07T05:35:57;5.08;;;3.00;;
69220;SDS011;56331;51.992;20.910;2022-12-07T05:38:24;4.58;;;3.17;;
69220;SDS011;56331;51.992;20.910;2022-12-07T05:40:50;4.62;;;3.10;;
69220;SDS011;56331;51.992;20.910;2022-12-07T05:43:17;4.85;;;3.20;;
69220;SDS011;56331;51.992;20.910;2022-12-07T05:45:43;4.50;;;3.12;;
69220;SDS011;56331;51.992;20.910;2022-12-07T05:48:10;3.95;;;3.10;;
69220;SDS011;56331;51.992;20.910;2022-12-07T05:50:36;4.12;;;2.85;;
69220;SDS011;56331;51.992;20.910;2022-12-07T05:53:03;4.62;;;3.12;;
69220;SDS011;56331;51.992;20.910;2022-12-07T05:55:29;3.65;;;2.60;;
69220;SDS011;56331;51.992;20.910;2022-12-07T05:57:55;4.12;;;3.08;;
69220;SDS011;56331;51.992;20.910;2022-12-07T06:00:40;3.80;;;2.87;;
69220;SDS011;56331;51.992;20.910;2022-12-07T06:03:07;4.85;;;3.22;;
69220;SDS011;56331;51.992;20.910;2022-12-07T06:05:34;4.58;;;3.10;;
69220;SDS011;56331;51.992;20.910;2022-12-07T06:08:00;3.80;;;2.92;;
69220;SDS011;56331;51.992;20.910;2022-12-07T06:10:27;3.90;;;2.80;;
69220;SDS011;56331;51.992;20.910;2022-12-07T06:12:53;3.83;;;2.85;;
69220;SDS011;56331;51.992;20.910;2022-12-07T06:15:20;3.62;;;2.65;;
69220;SDS011;56331;51.992;20.910;2022-12-07T06:17:48;3.22;;;2.52;;
69220;SDS011;56331;51.992;20.910;2022-12-07T06:20:15;3.83;;;2.85;;
69220;SDS011;56331;51.992;20.910;2022-12-07T06:22:41;3.02;;;2.52;;
69220;SDS011;56331;51.992;20.910;2022-12-07T06:25:08;4.67;;;2.87;;
69220;SDS011;56331;51.992;20.910;2022-12-07T06:27:35;4.28;;;2.90;;
69220;SDS011;56331;51.992;20.910;2022-12-07T06:30:02;3.40;;;2.65;;
69220;SDS011;56331;51.992;20.910;2022-12-07T06:32:32;4.22;;;2.98;;
69220;SDS011;56331;51.992;20.910;2022-12-07T06:34:59;4.17;;;2.80;;
69220;SDS011;56331;51.992;20.910;2022-12-07T06:37:26;4.87;;;2.80;;
69220;SDS011;56331;51.992;20.910;2022-12-07T06:39:53;3.22;;;2.27;;
69220;SDS011;56331;51.992;20.910;2022-12-07T06:42:20;7.45;;;2.90;;
69220;SDS011;56331;51.992;20.910;2022-12-07T06:44:46;3.85;;;2.70;;
69220;SDS011;56331;51.992;20.910;2022-12-07T06:47:12;3.17;;;2.62;;
69220;SDS011;56331;51.992;20.910;2022-12-07T06:49:39;4.03;;;2.90;;
69220;SDS011;56331;51.992;20.910;2022-12-07T06:52:05;3.25;;;2.65;;
69220;SDS011;56331;51.992;20.910;2022-12-07T06:54:32;2.80;;;2.30;;
69220;SDS011;56331;51.992;20.910;2022-12-07T06:56:58;5.58;;;3.02;;
69220;SDS011;56331;51.992;20.910;2022-12-07T06:59:25;4.35;;;2.58;;
69220;SDS011;56331;51.992;20.910;2022-12-07T07:01:51;4.90;;;2.60;;
69220;SDS011;56331;51.992;20.910;2022-12-07T07:04:17;4.10;;;2.75;;
69220;SDS011;56331;51.992;20.910;2022-12-07T07:06:44;3.87;;;2.45;;
69220;SDS011;56331;51.992;20.910;2022-12-07T07:09:10;3.55;;;2.65;;
69220;SDS011;56331;51.992;20.910;2022-12-07T07:11:36;3.02;;;2.55;;
69220;SDS011;56331;51.992;20.910;2022-12-07T07:17:04;3.98;;;3.00;;
69220;SDS011;56331;51.992;20.910;2022-12-07T07:19:31;4.33;;;2.72;;
69220;SDS011;56331;51.992;20.910;2022-12-07T07:21:57;4.12;;;2.60;;
69220;SDS011;56331;51.992;20.910;2022-12-07T07:24:24;3.42;;;2.65;;
69220;SDS011;56331;51.992;20.910;2022-12-07T07:26:50;5.28;;;2.87;;
69220;SDS011;56331;51.992;20.910;2022-12-07T07:29:16;3.00;;;2.42;;
69220;SDS011;56331;51.992;20.910;2022-12-07T07:31:43;3.60;;;2.55;;
69220;SDS011;56331;51.992;20.910;2022-12-07T07:34:10;5.00;;;2.85;;
69220;SDS011;56331;51.992;20.910;2022-12-07T07:36:36;4.25;;;2.40;;
69220;SDS011;56331;51.992;20.910;2022-12-07T07:39:03;3.35;;;2.40;;
69220;SDS011;56331;51.992;20.910;2022-12-07T07:41:30;5.00;;;2.22;;
69220;SDS011;56331;51.992;20.910;2022-12-07T07:43:57;2.83;;;2.12;;
69220;SDS011;56331;51.992;20.910;2022-12-07T07:46:24;3.27;;;2.35;;
69220;SDS011;56331;51.992;20.910;2022-12-07T07:48:50;2.45;;;2.00;;
69220;SDS011;56331;51.992;20.910;2022-12-07T07:51:17;3.42;;;2.20;;
69220;SDS011;56331;51.992;20.910;2022-12-07T07:53:44;3.25;;;2.02;;
69220;SDS011;56331;51.992;20.910;2022-12-07T07:56:10;6.10;;;3.90;;
69220;SDS011;56331;51.992;20.910;2022-12-07T07:58:37;5.62;;;2.87;;
69220;SDS011;56331;51.992;20.910;2022-12-07T08:01:05;13.60;;;3.10;;
69220;SDS011;56331;51.992;20.910;2022-12-07T08:03:32;29.65;;;6.00;;
69220;SDS011;56331;51.992;20.910;2022-12-07T08:05:59;40.60;;;8.53;;
69220;SDS011;56331;51.992;20.910;2022-12-07T08:08:25;45.58;;;9.43;;
69220;SDS011;56331;51.992;20.910;2022-12-07T08:10:52;34.53;;;7.70;;
69220;SDS011;56331;51.992;20.910;2022-12-07T08:13:18;48.17;;;8.45;;
69220;SDS011;56331;51.992;20.910;2022-12-07T08:15:45;36.73;;;8.50;;
69220;SDS011;56331;51.992;20.910;2022-12-07T08:18:14;40.73;;;8.63;;
69220;SDS011;56331;51.992;20.910;2022-12-07T08:20:41;34.05;;;7.80;;
69220;SDS011;56331;51.992;20.910;2022-12-07T08:23:08;28.90;;;9.00;;
69220;SDS011;56331;51.992;20.910;2022-12-07T08:25:36;46.13;;;11.15;;
69220;SDS011;56331;51.992;20.910;2022-12-07T08:28:02;44.45;;;13.38;;
69220;SDS011;56331;51.992;20.910;2022-12-07T08:30:29;54.27;;;14.13;;
69220;SDS011;56331;51.992;20.910;2022-12-07T08:32:56;54.67;;;15.75;;
69220;SDS011;56331;51.992;20.910;2022-12-07T08:35:23;65.57;;;18.95;;
69220;SDS011;56331;51.992;20.910;2022-12-07T08:37:51;62.75;;;20.75;;
69220;SDS011;56331;51.992;20.910;2022-12-07T08:40:18;63.23;;;19.75;;
69220;SDS011;56331;51.992;20.910;2022-12-07T08:42:51;55.70;;;18.37;;
69220;SDS011;56331;51.992;20.910;2022-12-07T08:45:18;51.48;;;18.73;;
69220;SDS011;56331;51.992;20.910;2022-12-07T08:47:50;43.50;;;15.93;;
69220;SDS011;56331;51.992;20.910;2022-12-07T08:50:18;49.90;;;17.73;;
69220;SDS011;56331;51.992;20.910;2022-12-07T08:52:48;48.55;;;16.80;;
69220;SDS011;56331;51.992;20.910;2022-12-07T08:55:19;46.08;;;15.70;;
69220;SDS011;56331;51.992;20.910;2022-12-07T08:57:46;46.15;;;16.55;;
69220;SDS011;56331;51.992;20.910;2022-12-07T09:00:13;48.15;;;16.15;;
69220;SDS011;56331;51.992;20.910;2022-12-07T09:02:40;42.38;;;15.35;;
69220;SDS011;56331;51.992;20.910;2022-12-07T09:05:07;40.55;;;14.50;;
69220;SDS011;56331;51.992;20.910;2022-12-07T09:07:34;44.50;;;14.95;;
69220;SDS011;56331;51.992;20.910;2022-12-07T09:10:02;35.70;;;14.75;;
69220;SDS011;56331;51.992;20.910;2022-12-07T09:12:30;39.65;;;14.40;;
69220;SDS011;56331;51.992;20.910;2022-12-07T09:14:56;34.48;;;13.43;;
69220;SDS011;56331;51.992;20.910;2022-12-07T09:17:22;36.50;;;13.80;;
69220;SDS011;56331;51.992;20.910;2022-12-07T09:19:49;38.55;;;14.33;;
69220;SDS011;56331;51.992;20.910;2022-12-07T09:22:15;36.77;;;13.90;;
69220;SDS011;56331;51.992;20.910;2022-12-07T09:24:42;33.10;;;13.65;;
69220;SDS011;56331;51.992;20.910;2022-12-07T09:27:10;39.05;;;13.50;;
69220;SDS011;56331;51.992;20.910;2022-12-07T09:29:36;32.95;;;12.60;;
69220;SDS011;56331;51.992;20.910;2022-12-07T09:32:04;33.13;;;11.90;;
69220;SDS011;56331;51.992;20.910;2022-12-07T09:34:31;28.85;;;12.98;;
69220;SDS011;56331;51.992;20.910;2022-12-07T09:36:58;28.83;;;11.93;;
69220;SDS011;56331;51.992;20.910;2022-12-07T09:39:27;24.85;;;10.18;;
69220;SDS011;56331;51.992;20.910;2022-12-07T09:41:53;22.17;;;10.13;;
69220;SDS011;56331;51.992;20.910;2022-12-07T09:44:21;25.90;;;11.30;;
69220;SDS011;56331;51.992;20.910;2022-12-07T09:46:50;26.12;;;9.48;;
69220;SDS011;56331;51.992;20.910;2022-12-07T09:49:22;20.23;;;9.35;;
69220;SDS011;56331;51.992;20.910;2022-12-07T09:51:59;20.95;;;9.13;;
69220;SDS011;56331;51.992;20.910;2022-12-07T09:54:27;22.73;;;9.33;;
69220;SDS011;56331;51.992;20.910;2022-12-07T09:56:55;21.20;;;8.40;;
69220;SDS011;56331;51.992;20.910;2022-12-07T09:59:22;17.30;;;8.30;;
69220;SDS011;56331;51.992;20.910;2022-12-07T10:01:49;19.17;;;8.18;;
69220;SDS011;56331;51.992;20.910;2022-12-07T10:04:17;20.55;;;8.90;;
69220;SDS011;56331;51.992;20.910;2022-12-07T10:06:47;18.57;;;8.15;;
69220;SDS011;56331;51.992;20.910;2022-12-07T10:09:15;23.18;;;8.58;;
69220;SDS011;56331;51.992;20.910;2022-12-07T10:12:00;29.77;;;8.35;;
69220;SDS011;56331;51.992;20.910;2022-12-07T10:14:29;21.25;;;8.55;;
69220;SDS011;56331;51.992;20.910;2022-12-07T10:16:57;18.87;;;7.93;;
69220;SDS011;56331;51.992;20.910;2022-12-07T10:22:15;17.42;;;8.25;;
69220;SDS011;56331;51.992;20.910;2022-12-07T10:24:32;16.12;;;7.42;;
69220;SDS011;56331;51.992;20.910;2022-12-07T10:26:59;19.52;;;7.97;;
69220;SDS011;56331;51.992;20.910;2022-12-07T10:29:36;16.77;;;8.00;;
69220;SDS011;56331;51.992;20.910;2022-12-07T10:32:05;19.27;;;7.00;;
69220;SDS011;56331;51.992;20.910;2022-12-07T10:34:43;15.30;;;6.75;;
69220;SDS011;56331;51.992;20.910;2022-12-07T10:39:46;15.43;;;7.20;;
69220;SDS011;56331;51.992;20.910;2022-12-07T10:42:24;17.10;;;7.05;;
69220;SDS011;56331;51.992;20.910;2022-12-07T10:53:43;15.68;;;7.12;;
69220;SDS011;56331;51.992;20.910;2022-12-07T11:01:45;12.50;;;6.30;;
69220;SDS011;56331;51.992;20.910;2022-12-07T11:07:10;13.20;;;6.05;;
69220;SDS011;56331;51.992;20.910;2022-12-07T11:15:13;13.60;;;5.67;;
69220;SDS011;56331;51.992;20.910;2022-12-07T11:20:29;11.53;;;5.28;;
69220;SDS011;56331;51.992;20.910;2022-12-07T11:23:16;72.72;;;51.48;;
69220;SDS011;56331;51.992;20.910;2022-12-07T11:37:18;41.00;;;26.35;;
69220;SDS011;56331;51.992;20.910;2022-12-07T11:39:54;41.63;;;25.40;;
69220;SDS011;56331;51.992;20.910;2022-12-07T11:42:29;41.68;;;26.50;;
69220;SDS011;56331;51.992;20.910;2022-12-07T11:44:55;43.48;;;25.72;;
69220;SDS011;56331;51.992;20.910;2022-12-07T11:52:51;40.35;;;24.80;;
69220;SDS011;56331;51.992;20.910;2022-12-07T11:55:26;42.03;;;24.10;;
69220;SDS011;56331;51.992;20.910;2022-12-07T11:57:56;37.55;;;23.47;;
69220;SDS011;56331;51.992;20.910;2022-12-07T12:00:38;40.33;;;22.80;;
69220;SDS011;56331;51.992;20.910;2022-12-07T12:03:11;38.35;;;21.20;;
69220;SDS011;56331;51.992;20.910;2022-12-07T12:05:39;33.13;;;19.48;;
69220;SDS011;56331;51.992;20.910;2022-12-07T12:16:40;32.03;;;16.73;;
69220;SDS011;56331;51.992;20.910;2022-12-07T12:22:10;30.65;;;15.00;;
69220;SDS011;56331;51.992;20.910;2022-12-07T12:24:43;32.13;;;14.65;;
69220;SDS011;56331;51.992;20.910;2022-12-07T12:27:21;30.50;;;13.72;;
69220;SDS011;56331;51.992;20.910;2022-12-07T12:29:50;32.28;;;14.13;;
69220;SDS011;56331;51.992;20.910;2022-12-07T12:37:45;31.23;;;13.78;;
69220;SDS011;56331;51.992;20.910;2022-12-07T12:42:51;27.07;;;12.63;;
69220;SDS011;56331;51.992;20.910;2022-12-07T12:45:27;28.15;;;13.38;;
69220;SDS011;56331;51.992;20.910;2022-12-07T12:50:33;26.60;;;13.65;;
69220;SDS011;56331;51.992;20.910;2022-12-07T12:53:44;26.77;;;12.95;;
69220;SDS011;56331;51.992;20.910;2022-12-07T12:58:31;26.07;;;13.00;;
69220;SDS011;56331;51.992;20.910;2022-12-07T13:04:21;24.60;;;11.50;;
69220;SDS011;56331;51.992;20.910;2022-12-07T13:06:48;25.92;;;11.68;;
69220;SDS011;56331;51.992;20.910;2022-12-07T13:09:23;24.30;;;11.83;;
69220;SDS011;56331;51.992;20.910;2022-12-07T13:11:48;26.33;;;11.03;;
69220;SDS011;56331;51.992;20.910;2022-12-07T13:17:54;21.73;;;11.38;;
69220;SDS011;56331;51.992;20.910;2022-12-07T13:19:57;24.00;;;11.33;;
69220;SDS011;56331;51.992;20.910;2022-12-07T13:28:02;21.25;;;10.45;;
69220;SDS011;56331;51.992;20.910;2022-12-07T13:30:45;22.17;;;9.88;;
69220;SDS011;56331;51.992;20.910;2022-12-07T13:33:13;18.90;;;10.50;;
69220;SDS011;56331;51.992;20.910;2022-12-07T13:35:43;21.85;;;9.45;;
69220;SDS011;56331;51.992;20.910;2022-12-07T13:38:32;19.67;;;10.08;;
69220;SDS011;56331;51.992;20.910;2022-12-07T13:40:42;21.85;;;9.80;;
69220;SDS011;56331;51.992;20.910;2022-12-07T13:43:12;18.32;;;9.03;;
69220;SDS011;56331;51.992;20.910;2022-12-07T13:45:40;22.85;;;10.03;;
69220;SDS011;56331;51.992;20.910;2022-12-07T13:50:53;17.37;;;9.13;;
69220;SDS011;56331;51.992;20.910;2022-12-07T13:53:21;17.80;;;8.60;;
69220;SDS011;56331;51.992;20.910;2022-12-07T13:55:48;19.12;;;9.03;;
69220;SDS011;56331;51.992;20.910;2022-12-07T13:58:15;16.85;;;8.35;;
69220;SDS011;56331;51.992;20.910;2022-12-07T14:00:41;19.07;;;9.25;;
69220;SDS011;56331;51.992;20.910;2022-12-07T14:05:43;17.98;;;8.25;;
69220;SDS011;56331;51.992;20.910;2022-12-07T14:10:52;13.08;;;7.80;;
69220;SDS011;56331;51.992;20.910;2022-12-07T14:16:26;15.13;;;8.18;;
69220;SDS011;56331;51.992;20.910;2022-12-07T14:18:58;15.45;;;8.13;;
69220;SDS011;56331;51.992;20.910;2022-12-07T14:21:27;16.37;;;8.43;;
69220;SDS011;56331;51.992;20.910;2022-12-07T14:24:02;15.53;;;8.10;;
69220;SDS011;56331;51.992;20.910;2022-12-07T14:26:38;16.55;;;7.47;;
69220;SDS011;56331;51.992;20.910;2022-12-07T14:31:52;14.00;;;7.10;;
69220;SDS011;56331;51.992;20.910;2022-12-07T14:34:20;12.82;;;6.87;;
69220;SDS011;56331;51.992;20.910;2022-12-07T14:36:47;14.63;;;7.35;;
69220;SDS011;56331;51.992;20.910;2022-12-07T14:39:14;17.85;;;7.58;;
69220;SDS011;56331;51.992;20.910;2022-12-07T14:41:40;11.78;;;6.50;;
69220;SDS011;56331;51.992;20.910;2022-12-07T14:44:19;13.18;;;6.80;;
69220;SDS011;56331;51.992;20.910;2022-12-07T14:46:47;14.65;;;6.90;;
69220;SDS011;56331;51.992;20.910;2022-12-07T14:49:15;13.10;;;6.50;;
69220;SDS011;56331;51.992;20.910;2022-12-07T14:51:41;12.60;;;5.83;;
69220;SDS011;56331;51.992;20.910;2022-12-07T14:54:12;12.88;;;6.28;;
69220;SDS011;56331;51.992;20.910;2022-12-07T14:59:07;10.35;;;5.78;;
69220;SDS011;56331;51.992;20.910;2022-12-07T15:01:33;9.08;;;5.35;;
69220;SDS011;56331;51.992;20.910;2022-12-07T15:03:59;11.38;;;5.60;;
69220;SDS011;56331;51.992;20.910;2022-12-07T15:06:26;10.58;;;5.60;;
69220;SDS011;56331;51.992;20.910;2022-12-07T15:08:52;9.98;;;5.58;;
69220;SDS011;56331;51.992;20.910;2022-12-07T15:11:20;9.03;;;5.03;;
69220;SDS011;56331;51.992;20.910;2022-12-07T15:13:47;9.45;;;5.10;;
69220;SDS011;56331;51.992;20.910;2022-12-07T15:16:32;13.90;;;5.05;;
69220;SDS011;56331;51.992;20.910;2022-12-07T15:18:58;8.45;;;4.75;;
69220;SDS011;56331;51.992;20.910;2022-12-07T15:21:25;7.37;;;4.85;;
69220;SDS011;56331;51.992;20.910;2022-12-07T15:23:51;10.15;;;5.53;;
69220;SDS011;56331;51.992;20.910;2022-12-07T15:26:19;11.33;;;4.95;;
69220;SDS011;56331;51.992;20.910;2022-12-07T15:28:48;8.83;;;5.22;;
69220;SDS011;56331;51.992;20.910;2022-12-07T15:31:15;7.72;;;5.00;;
69220;SDS011;56331;51.992;20.910;2022-12-07T15:33:43;8.13;;;4.53;;
69220;SDS011;56331;51.992;20.910;2022-12-07T15:36:16;8.28;;;4.90;;
69220;SDS011;56331;51.992;20.910;2022-12-07T15:41:06;7.70;;;4.67;;
69220;SDS011;56331;51.992;20.910;2022-12-07T15:43:32;8.45;;;5.00;;
69220;SDS011;56331;51.992;20.910;2022-12-07T15:46:17;8.30;;;4.60;;
69220;SDS011;56331;51.992;20.910;2022-12-07T15:48:46;9.10;;;4.70;;
69220;SDS011;56331;51.992;20.910;2022-12-07T15:51:12;6.83;;;4.42;;
69220;SDS011;56331;51.992;20.910;2022-12-07T15:53:39;7.40;;;4.60;;
69220;SDS011;56331;51.992;20.910;2022-12-07T15:56:06;7.35;;;4.20;;
69220;SDS011;56331;51.992;20.910;2022-12-07T15:58:33;8.68;;;4.17;;
69220;SDS011;56331;51.992;20.910;2022-12-07T16:01:00;7.45;;;4.55;;
69220;SDS011;56331;51.992;20.910;2022-12-07T16:05:57;6.08;;;4.00;;
69220;SDS011;56331;51.992;20.910;2022-12-07T16:08:25;8.13;;;4.78;;
69220;SDS011;56331;51.992;20.910;2022-12-07T16:10:51;8.30;;;4.42;;
69220;SDS011;56331;51.992;20.910;2022-12-07T16:13:18;6.80;;;3.87;;
69220;SDS011;56331;51.992;20.910;2022-12-07T16:15:45;7.95;;;4.12;;
69220;SDS011;56331;51.992;20.910;2022-12-07T16:18:11;7.87;;;4.08;;
69220;SDS011;56331;51.992;20.910;2022-12-07T16:20:37;6.08;;;4.03;;
69220;SDS011;56331;51.992;20.910;2022-12-07T16:23:04;6.65;;;4.40;;
69220;SDS011;56331;51.992;20.910;2022-12-07T16:25:33;6.45;;;4.08;;
69220;SDS011;56331;51.992;20.910;2022-12-07T16:27:59;7.08;;;4.25;;
69220;SDS011;56331;51.992;20.910;2022-12-07T16:30:25;7.75;;;4.17;;
69220;SDS011;56331;51.992;20.910;2022-12-07T16:32:52;9.40;;;4.60;;
69220;SDS011;56331;51.992;20.910;2022-12-07T16:35:19;9.43;;;4.80;;
69220;SDS011;56331;51.992;20.910;2022-12-07T16:37:45;14.05;;;5.12;;
69220;SDS011;56331;51.992;20.910;2022-12-07T16:40:11;11.97;;;5.80;;
69220;SDS011;56331;51.992;20.910;2022-12-07T16:42:38;15.43;;;5.65;;
69220;SDS011;56331;51.992;20.910;2022-12-07T16:45:05;11.88;;;5.85;;
69220;SDS011;56331;51.992;20.910;2022-12-07T16:47:32;14.93;;;5.80;;
69220;SDS011;56331;51.992;20.910;2022-12-07T16:49:59;15.35;;;5.80;;
69220;SDS011;56331;51.992;20.910;2022-12-07T16:52:25;13.68;;;6.67;;
69220;SDS011;56331;51.992;20.910;2022-12-07T16:54:53;16.65;;;6.85;;
69220;SDS011;56331;51.992;20.910;2022-12-07T16:57:20;15.18;;;6.85;;
69220;SDS011;56331;51.992;20.910;2022-12-07T16:59:46;15.30;;;8.03;;
69220;SDS011;56331;51.992;20.910;2022-12-07T17:02:13;14.90;;;7.08;;
69220;SDS011;56331;51.992;20.910;2022-12-07T17:04:40;17.17;;;7.47;;
69220;SDS011;56331;51.992;20.910;2022-12-07T17:07:08;15.93;;;7.60;;
69220;SDS011;56331;51.992;20.910;2022-12-07T17:09:36;15.28;;;7.87;;
69220;SDS011;56331;51.992;20.910;2022-12-07T17:12:02;14.43;;;7.15;;
69220;SDS011;56331;51.992;20.910;2022-12-07T17:14:30;17.02;;;7.50;;
69220;SDS011;56331;51.992;20.910;2022-12-07T17:17:15;15.60;;;7.10;;
69220;SDS011;56331;51.992;20.910;2022-12-07T17:19:42;18.35;;;8.43;;